sensor_id;sensor_type;location;lat;lon;timestamp;temperature;humidity
63445;DHT22;49573;47.682;9.170;2022-12-24T00:00:12;12.00;79.70
63445;DHT22;49573;47.682;9.170;2022-12-24T00:02:59;12.00;80.10
63445;DHT22;49573;47.682;9.170;2022-12-24T00:05:45;12.00;79.90
63445;DHT22;49573;47.682;9.170;2022-12-24T00:08:31;12.00;79.80
63445;DHT22;49573;47.682;9.170;2022-12-24T00:11:17;12.00;79.90
63445;DHT22;49573;47.682;9.170;2022-12-24T00:14:04;12.00;79.90
63445;DHT22;49573;47.682;9.170;2022-12-24T00:16:51;12.00;79.90
63445;DHT22;49573;47.682;9.170;2022-12-24T00:19:37;11.90;80.20
63445;DHT22;49573;47.682;9.170;2022-12-24T00:22:23;11.90;80.20
63445;DHT22;49573;47.682;9.170;2022-12-24T00:25:09;11.90;80.60
63445;DHT22;49573;47.682;9.170;2022-12-24T00:27:55;11.90;80.70
63445;DHT22;49573;47.682;9.170;2022-12-24T00:30:42;11.80;80.60
63445;DHT22;49573;47.682;9.170;2022-12-24T00:33:29;11.80;80.60
63445;DHT22;49573;47.682;9.170;2022-12-24T00:36:16;11.80;80.70
63445;DHT22;49573;47.682;9.170;2022-12-24T00:39:02;11.70;80.90
63445;DHT22;49573;47.682;9.170;2022-12-24T00:41:48;11.70;81.10
63445;DHT22;49573;47.682;9.170;2022-12-24T00:44:34;11.70;81.30
63445;DHT22;49573;47.682;9.170;2022-12-24T00:47:20;11.70;81.50
63445;DHT22;49573;47.682;9.170;2022-12-24T00:50:08;11.70;81.60
63445;DHT22;49573;47.682;9.170;2022-12-24T00:52:54;11.70;81.40
63445;DHT22;49573;47.682;9.170;2022-12-24T00:55:41;11.80;81.40
63445;DHT22;49573;47.682;9.170;2022-12-24T00:58:27;11.70;81.90
63445;DHT22;49573;47.682;9.170;2022-12-24T01:01:13;11.80;81.80
63445;DHT22;49573;47.682;9.170;2022-12-24T01:04:00;11.70;82.00
63445;DHT22;49573;47.682;9.170;2022-12-24T01:07:05;11.70;82.00
63445;DHT22;49573;47.682;9.170;2022-12-24T01:09:52;11.70;82.00
63445;DHT22;49573;47.682;9.170;2022-12-24T01:12:38;11.80;82.20
63445;DHT22;49573;47.682;9.170;2022-12-24T01:15:24;11.70;82.30
63445;DHT22;49573;47.682;9.170;2022-12-24T01:18:10;11.70;82.20
63445;DHT22;49573;47.682;9.170;2022-12-24T01:20:57;11.80;82.10
63445;DHT22;49573;47.682;9.170;2022-12-24T01:23:45;11.70;82.10
63445;DHT22;49573;47.682;9.170;2022-12-24T01:26:31;11.80;81.90
63445;DHT22;49573;47.682;9.170;2022-12-24T01:29:17;11.70;82.00
63445;DHT22;49573;47.682;9.170;2022-12-24T01:32:04;11.70;81.80
63445;DHT22;49573;47.682;9.170;2022-12-24T01:34:50;11.70;81.90
63445;DHT22;49573;47.682;9.170;2022-12-24T01:37:36;11.70;81.90
63445;DHT22;49573;47.682;9.170;2022-12-24T01:40:25;11.80;81.90
63445;DHT22;49573;47.682;9.170;2022-12-24T01:43:32;11.80;81.80
63445;DHT22;49573;47.682;9.170;2022-12-24T01:46:19;11.80;81.80
63445;DHT22;49573;47.682;9.170;2022-12-24T01:49:10;11.70;82.00
63445;DHT22;49573;47.682;9.170;2022-12-24T01:52:01;11.70;81.90
63445;DHT22;49573;47.682;9.170;2022-12-24T01:54:50;11.70;82.00
63445;DHT22;49573;47.682;9.170;2022-12-24T01:57:41;11.70;81.90
63445;DHT22;49573;47.682;9.170;2022-12-24T02:00:29;11.70;82.20
63445;DHT22;49573;47.682;9.170;2022-12-24T02:03:16;11.70;82.30
63445;DHT22;49573;47.682;9.170;2022-12-24T02:06:03;11.60;82.50
63445;DHT22;49573;47.682;9.170;2022-12-24T02:08:49;11.70;82.50
63445;DHT22;49573;47.682;9.170;2022-12-24T02:11:38;11.70;82.60
63445;DHT22;49573;47.682;9.170;2022-12-24T02:14:26;11.70;82.70
63445;DHT22;49573;47.682;9.170;2022-12-24T02:17:27;11.60;82.90
63445;DHT22;49573;47.682;9.170;2022-12-24T02:20:46;11.60;83.00
63445;DHT22;49573;47.682;9.170;2022-12-24T02:23:54;11.60;82.70
63445;DHT22;49573;47.682;9.170;2022-12-24T02:27:06;11.60;82.00
63445;DHT22;49573;47.682;9.170;2022-12-24T02:30:07;11.60;81.20
63445;DHT22;49573;47.682;9.170;2022-12-24T02:33:19;11.70;81.10
63445;DHT22;49573;47.682;9.170;2022-12-24T02:36:14;11.60;80.70
63445;DHT22;49573;47.682;9.170;2022-12-24T02:39:04;11.70;79.90
63445;DHT22;49573;47.682;9.170;2022-12-24T02:41:54;11.60;80.00
63445;DHT22;49573;47.682;9.170;2022-12-24T02:44:52;11.70;79.00
63445;DHT22;49573;47.682;9.170;2022-12-24T02:47:43;11.70;78.90
63445;DHT22;49573;47.682;9.170;2022-12-24T02:50:30;11.60;79.30
63445;DHT22;49573;47.682;9.170;2022-12-24T02:53:16;11.70;79.40
63445;DHT22;49573;47.682;9.170;2022-12-24T02:56:11;11.60;79.30
63445;DHT22;49573;47.682;9.170;2022-12-24T02:59:13;11.60;79.40
63445;DHT22;49573;47.682;9.170;2022-12-24T03:02:11;11.70;79.50
63445;DHT22;49573;47.682;9.170;2022-12-24T03:05:09;11.70;80.00
63445;DHT22;49573;47.682;9.170;2022-12-24T03:08:02;11.70;80.60
63445;DHT22;49573;47.682;9.170;2022-12-24T03:10:54;11.60;81.00
63445;DHT22;49573;47.682;9.170;2022-12-24T03:13:41;11.70;81.40
63445;DHT22;49573;47.682;9.170;2022-12-24T03:16:28;11.70;81.80
63445;DHT22;49573;47.682;9.170;2022-12-24T03:19:15;11.70;82.10
63445;DHT22;49573;47.682;9.170;2022-12-24T03:22:06;11.60;82.40
63445;DHT22;49573;47.682;9.170;2022-12-24T03:24:54;11.60;82.60
63445;DHT22;49573;47.682;9.170;2022-12-24T03:27:40;11.60;82.50
63445;DHT22;49573;47.682;9.170;2022-12-24T03:30:27;11.60;82.70
63445;DHT22;49573;47.682;9.170;2022-12-24T03:33:14;11.60;82.90
63445;DHT22;49573;47.682;9.170;2022-12-24T03:36:01;11.60;82.70
63445;DHT22;49573;47.682;9.170;2022-12-24T03:38:48;11.60;83.00
63445;DHT22;49573;47.682;9.170;2022-12-24T03:41:35;11.60;82.90
63445;DHT22;49573;47.682;9.170;2022-12-24T03:44:21;11.60;82.70
63445;DHT22;49573;47.682;9.170;2022-12-24T03:47:07;11.60;82.80
63445;DHT22;49573;47.682;9.170;2022-12-24T03:49:53;11.50;82.90
63445;DHT22;49573;47.682;9.170;2022-12-24T03:52:39;11.50;82.70
63445;DHT22;49573;47.682;9.170;2022-12-24T03:55:27;11.50;82.80
63445;DHT22;49573;47.682;9.170;2022-12-24T03:58:13;11.50;82.20
63445;DHT22;49573;47.682;9.170;2022-12-24T04:00:59;11.50;81.90
63445;DHT22;49573;47.682;9.170;2022-12-24T04:03:45;11.50;81.50
63445;DHT22;49573;47.682;9.170;2022-12-24T04:06:31;11.40;81.60
63445;DHT22;49573;47.682;9.170;2022-12-24T04:09:17;11.40;81.40
63445;DHT22;49573;47.682;9.170;2022-12-24T04:12:04;11.40;80.80
63445;DHT22;49573;47.682;9.170;2022-12-24T04:14:50;11.40;80.70
63445;DHT22;49573;47.682;9.170;2022-12-24T04:17:36;11.40;80.70
63445;DHT22;49573;47.682;9.170;2022-12-24T04:20:22;11.40;79.60
63445;DHT22;49573;47.682;9.170;2022-12-24T04:23:08;11.30;79.80
63445;DHT22;49573;47.682;9.170;2022-12-24T04:25:54;11.30;79.50
63445;DHT22;49573;47.682;9.170;2022-12-24T04:28:42;11.30;79.10
63445;DHT22;49573;47.682;9.170;2022-12-24T04:31:28;11.30;79.20
63445;DHT22;49573;47.682;9.170;2022-12-24T04:34:14;11.30;78.90
63445;DHT22;49573;47.682;9.170;2022-12-24T04:37:00;11.30;78.90
63445;DHT22;49573;47.682;9.170;2022-12-24T04:39:46;11.20;79.20
63445;DHT22;49573;47.682;9.170;2022-12-24T04:42:32;11.20;78.10
63445;DHT22;49573;47.682;9.170;2022-12-24T04:45:19;11.30;76.80
63445;DHT22;49573;47.682;9.170;2022-12-24T04:48:05;11.30;77.50
63445;DHT22;49573;47.682;9.170;2022-12-24T04:50:51;11.20;76.90
63445;DHT22;49573;47.682;9.170;2022-12-24T04:53:38;11.30;76.70
63445;DHT22;49573;47.682;9.170;2022-12-24T04:56:26;11.20;76.70
63445;DHT22;49573;47.682;9.170;2022-12-24T04:59:12;11.20;77.30
63445;DHT22;49573;47.682;9.170;2022-12-24T05:02:00;11.10;77.50
63445;DHT22;49573;47.682;9.170;2022-12-24T05:04:46;11.10;77.30
63445;DHT22;49573;47.682;9.170;2022-12-24T05:07:33;11.10;77.60
63445;DHT22;49573;47.682;9.170;2022-12-24T05:10:19;11.10;77.80
63445;DHT22;49573;47.682;9.170;2022-12-24T05:13:05;11.00;78.00
63445;DHT22;49573;47.682;9.170;2022-12-24T05:15:51;11.00;77.70
63445;DHT22;49573;47.682;9.170;2022-12-24T05:18:39;11.00;78.00
63445;DHT22;49573;47.682;9.170;2022-12-24T05:21:25;11.00;78.30
63445;DHT22;49573;47.682;9.170;2022-12-24T05:24:11;10.90;79.10
63445;DHT22;49573;47.682;9.170;2022-12-24T05:27:16;10.90;80.50
63445;DHT22;49573;47.682;9.170;2022-12-24T05:30:02;10.90;81.20
63445;DHT22;49573;47.682;9.170;2022-12-24T05:32:49;10.90;81.30
63445;DHT22;49573;47.682;9.170;2022-12-24T05:35:36;10.90;81.00
63445;DHT22;49573;47.682;9.170;2022-12-24T05:38:22;10.90;81.40
63445;DHT22;49573;47.682;9.170;2022-12-24T05:41:08;10.90;81.10
63445;DHT22;49573;47.682;9.170;2022-12-24T05:43:54;10.90;80.50
63445;DHT22;49573;47.682;9.170;2022-12-24T05:46:41;10.90;79.80
63445;DHT22;49573;47.682;9.170;2022-12-24T05:49:27;10.80;79.50
63445;DHT22;49573;47.682;9.170;2022-12-24T05:52:15;10.80;78.70
63445;DHT22;49573;47.682;9.170;2022-12-24T05:55:01;10.80;78.70
63445;DHT22;49573;47.682;9.170;2022-12-24T05:57:47;10.80;77.60
63445;DHT22;49573;47.682;9.170;2022-12-24T06:00:33;10.80;77.10
63445;DHT22;49573;47.682;9.170;2022-12-24T06:03:19;10.80;77.60
63445;DHT22;49573;47.682;9.170;2022-12-24T06:06:07;10.80;77.20
63445;DHT22;49573;47.682;9.170;2022-12-24T06:08:55;10.80;77.20
63445;DHT22;49573;47.682;9.170;2022-12-24T06:11:41;10.80;77.40
63445;DHT22;49573;47.682;9.170;2022-12-24T06:14:27;10.80;77.30
63445;DHT22;49573;47.682;9.170;2022-12-24T06:17:13;10.70;77.70
63445;DHT22;49573;47.682;9.170;2022-12-24T06:19:59;10.70;77.80
63445;DHT22;49573;47.682;9.170;2022-12-24T06:22:45;10.70;77.80
63445;DHT22;49573;47.682;9.170;2022-12-24T06:25:33;10.70;78.20
63445;DHT22;49573;47.682;9.170;2022-12-24T06:28:19;10.70;78.50
63445;DHT22;49573;47.682;9.170;2022-12-24T06:31:06;10.70;78.80
63445;DHT22;49573;47.682;9.170;2022-12-24T06:33:56;10.70;79.30
63445;DHT22;49573;47.682;9.170;2022-12-24T06:36:42;10.70;79.60
63445;DHT22;49573;47.682;9.170;2022-12-24T06:39:28;10.70;79.70
63445;DHT22;49573;47.682;9.170;2022-12-24T06:42:15;10.70;79.90
63445;DHT22;49573;47.682;9.170;2022-12-24T06:45:02;10.70;80.10
63445;DHT22;49573;47.682;9.170;2022-12-24T06:47:48;10.70;80.20
63445;DHT22;49573;47.682;9.170;2022-12-24T06:50:34;10.70;80.60
63445;DHT22;49573;47.682;9.170;2022-12-24T06:53:20;10.60;80.90
63445;DHT22;49573;47.682;9.170;2022-12-24T06:56:09;10.70;81.00
63445;DHT22;49573;47.682;9.170;2022-12-24T06:58:57;10.60;81.40
63445;DHT22;49573;47.682;9.170;2022-12-24T07:01:43;10.60;81.60
63445;DHT22;49573;47.682;9.170;2022-12-24T07:04:29;10.60;81.60
63445;DHT22;49573;47.682;9.170;2022-12-24T07:07:15;10.50;81.90
63445;DHT22;49573;47.682;9.170;2022-12-24T07:10:02;10.50;82.00
63445;DHT22;49573;47.682;9.170;2022-12-24T07:12:48;10.50;81.90
63445;DHT22;49573;47.682;9.170;2022-12-24T07:15:35;10.50;82.00
63445;DHT22;49573;47.682;9.170;2022-12-24T07:18:21;10.50;81.90
63445;DHT22;49573;47.682;9.170;2022-12-24T07:21:08;10.40;81.80
63445;DHT22;49573;47.682;9.170;2022-12-24T07:23:54;10.40;81.70
63445;DHT22;49573;47.682;9.170;2022-12-24T07:26:40;10.30;81.90
63445;DHT22;49573;47.682;9.170;2022-12-24T07:29:26;10.30;81.60
63445;DHT22;49573;47.682;9.170;2022-12-24T07:32:13;10.20;81.70
63445;DHT22;49573;47.682;9.170;2022-12-24T07:34:59;10.10;81.60
63445;DHT22;49573;47.682;9.170;2022-12-24T07:37:45;10.10;81.80
63445;DHT22;49573;47.682;9.170;2022-12-24T07:40:32;10.00;81.80
63445;DHT22;49573;47.682;9.170;2022-12-24T07:43:19;10.00;81.80
63445;DHT22;49573;47.682;9.170;2022-12-24T07:46:05;10.00;82.10
63445;DHT22;49573;47.682;9.170;2022-12-24T07:48:53;9.90;81.80
63445;DHT22;49573;47.682;9.170;2022-12-24T07:51:39;9.90;81.80
63445;DHT22;49573;47.682;9.170;2022-12-24T07:54:25;9.90;81.70
63445;DHT22;49573;47.682;9.170;2022-12-24T07:57:11;9.80;81.70
63445;DHT22;49573;47.682;9.170;2022-12-24T07:59:57;9.80;81.80
63445;DHT22;49573;47.682;9.170;2022-12-24T08:02:43;9.80;81.90
63445;DHT22;49573;47.682;9.170;2022-12-24T08:05:34;9.70;81.90
63445;DHT22;49573;47.682;9.170;2022-12-24T08:08:20;9.70;82.00
63445;DHT22;49573;47.682;9.170;2022-12-24T08:11:07;9.70;81.90
63445;DHT22;49573;47.682;9.170;2022-12-24T08:13:53;9.70;81.90
63445;DHT22;49573;47.682;9.170;2022-12-24T08:16:39;9.70;81.90
63445;DHT22;49573;47.682;9.170;2022-12-24T08:19:25;9.70;82.00
63445;DHT22;49573;47.682;9.170;2022-12-24T08:22:13;9.60;82.40
63445;DHT22;49573;47.682;9.170;2022-12-24T08:24:59;9.50;82.70
63445;DHT22;49573;47.682;9.170;2022-12-24T08:27:46;9.50;82.90
63445;DHT22;49573;47.682;9.170;2022-12-24T08:30:32;9.50;82.80
63445;DHT22;49573;47.682;9.170;2022-12-24T08:33:18;9.50;82.90
63445;DHT22;49573;47.682;9.170;2022-12-24T08:36:05;9.50;83.10
63445;DHT22;49573;47.682;9.170;2022-12-24T08:38:52;9.50;83.00
63445;DHT22;49573;47.682;9.170;2022-12-24T08:41:38;9.50;82.70
63445;DHT22;49573;47.682;9.170;2022-12-24T08:44:24;9.50;82.80
63445;DHT22;49573;47.682;9.170;2022-12-24T08:47:10;9.40;82.80
63445;DHT22;49573;47.682;9.170;2022-12-24T08:49:57;9.50;82.90
63445;DHT22;49573;47.682;9.170;2022-12-24T08:52:43;9.40;82.80
63445;DHT22;49573;47.682;9.170;2022-12-24T08:55:30;9.40;83.00
63445;DHT22;49573;47.682;9.170;2022-12-24T08:58:16;9.40;83.00
63445;DHT22;49573;47.682;9.170;2022-12-24T09:01:09;9.40;82.70
63445;DHT22;49573;47.682;9.170;2022-12-24T09:03:55;9.50;82.90
63445;DHT22;49573;47.682;9.170;2022-12-24T09:06:42;9.40;82.80
63445;DHT22;49573;47.682;9.170;2022-12-24T09:09:28;9.50;82.70
63445;DHT22;49573;47.682;9.170;2022-12-24T09:12:15;9.50;82.60
63445;DHT22;49573;47.682;9.170;2022-12-24T09:15:01;9.50;82.50
63445;DHT22;49573;47.682;9.170;2022-12-24T09:17:47;9.50;81.80
63445;DHT22;49573;47.682;9.170;2022-12-24T09:20:34;9.50;82.30
63445;DHT22;49573;47.682;9.170;2022-12-24T09:23:20;9.60;81.60
63445;DHT22;49573;47.682;9.170;2022-12-24T09:26:06;9.50;81.80
63445;DHT22;49573;47.682;9.170;2022-12-24T09:28:55;9.50;81.50
63445;DHT22;49573;47.682;9.170;2022-12-24T09:31:42;9.50;81.70
63445;DHT22;49573;47.682;9.170;2022-12-24T09:34:28;9.50;81.40
63445;DHT22;49573;47.682;9.170;2022-12-24T09:37:14;9.50;81.00
63445;DHT22;49573;47.682;9.170;2022-12-24T09:40:00;9.50;81.10
63445;DHT22;49573;47.682;9.170;2022-12-24T09:42:50;9.50;81.30
63445;DHT22;49573;47.682;9.170;2022-12-24T09:45:40;9.50;81.00
63445;DHT22;49573;47.682;9.170;2022-12-24T09:48:31;9.50;80.80
63445;DHT22;49573;47.682;9.170;2022-12-24T09:51:26;9.50;80.60
63445;DHT22;49573;47.682;9.170;2022-12-24T09:54:17;9.50;80.60
63445;DHT22;49573;47.682;9.170;2022-12-24T09:57:11;9.50;80.50
63445;DHT22;49573;47.682;9.170;2022-12-24T09:59:57;9.50;80.40
63445;DHT22;49573;47.682;9.170;2022-12-24T10:02:45;9.50;80.20
63445;DHT22;49573;47.682;9.170;2022-12-24T10:05:37;9.50;80.10
63445;DHT22;49573;47.682;9.170;2022-12-24T10:08:28;9.50;80.30
63445;DHT22;49573;47.682;9.170;2022-12-24T10:11:23;9.50;79.80
63445;DHT22;49573;47.682;9.170;2022-12-24T10:14:22;9.60;80.20
63445;DHT22;49573;47.682;9.170;2022-12-24T10:17:24;9.60;79.10
63445;DHT22;49573;47.682;9.170;2022-12-24T10:20:33;9.60;79.20
63445;DHT22;49573;47.682;9.170;2022-12-24T10:23:23;9.60;79.40
63445;DHT22;49573;47.682;9.170;2022-12-24T10:26:14;9.50;78.90
63445;DHT22;49573;47.682;9.170;2022-12-24T10:29:11;9.60;79.50
63445;DHT22;49573;47.682;9.170;2022-12-24T10:32:09;9.70;79.40
63445;DHT22;49573;47.682;9.170;2022-12-24T10:35:05;9.70;78.70
63445;DHT22;49573;47.682;9.170;2022-12-24T10:37:54;9.70;77.90
63445;DHT22;49573;47.682;9.170;2022-12-24T10:40:44;9.80;78.50
63445;DHT22;49573;47.682;9.170;2022-12-24T10:43:31;9.80;79.00
63445;DHT22;49573;47.682;9.170;2022-12-24T10:46:21;9.90;78.30
63445;DHT22;49573;47.682;9.170;2022-12-24T10:49:12;9.90;78.00
63445;DHT22;49573;47.682;9.170;2022-12-24T10:52:03;9.90;77.70
63445;DHT22;49573;47.682;9.170;2022-12-24T10:55:07;10.00;78.40
63445;DHT22;49573;47.682;9.170;2022-12-24T10:58:00;10.00;78.00
63445;DHT22;49573;47.682;9.170;2022-12-24T11:00:50;10.00;77.50
63445;DHT22;49573;47.682;9.170;2022-12-24T11:03:36;10.00;77.80
63445;DHT22;49573;47.682;9.170;2022-12-24T11:06:23;10.00;77.70
63445;DHT22;49573;47.682;9.170;2022-12-24T11:09:17;10.00;76.80
63445;DHT22;49573;47.682;9.170;2022-12-24T11:12:17;10.00;77.40
63445;DHT22;49573;47.682;9.170;2022-12-24T11:15:06;10.00;76.50
63445;DHT22;49573;47.682;9.170;2022-12-24T11:17:59;10.00;77.30
63445;DHT22;49573;47.682;9.170;2022-12-24T11:20:51;10.10;77.50
63445;DHT22;49573;47.682;9.170;2022-12-24T11:23:37;10.10;77.90
63445;DHT22;49573;47.682;9.170;2022-12-24T11:26:26;10.10;76.80
63445;DHT22;49573;47.682;9.170;2022-12-24T11:29:15;10.00;77.10
63445;DHT22;49573;47.682;9.170;2022-12-24T11:32:15;10.10;76.60
63445;DHT22;49573;47.682;9.170;2022-12-24T11:35:05;10.10;76.60
63445;DHT22;49573;47.682;9.170;2022-12-24T11:38:09;10.20;76.90
63445;DHT22;49573;47.682;9.170;2022-12-24T11:41:07;10.20;77.30
63445;DHT22;49573;47.682;9.170;2022-12-24T11:43:59;10.30;76.80
63445;DHT22;49573;47.682;9.170;2022-12-24T11:46:50;10.30;76.50
63445;DHT22;49573;47.682;9.170;2022-12-24T11:49:41;10.30;76.80
63445;DHT22;49573;47.682;9.170;2022-12-24T11:52:28;10.20;75.40
63445;DHT22;49573;47.682;9.170;2022-12-24T11:55:21;10.20;76.70
63445;DHT22;49573;47.682;9.170;2022-12-24T11:58:17;10.20;76.10
63445;DHT22;49573;47.682;9.170;2022-12-24T12:01:13;10.10;75.70
63445;DHT22;49573;47.682;9.170;2022-12-24T12:04:05;10.10;75.50
63445;DHT22;49573;47.682;9.170;2022-12-24T12:06:58;10.10;76.30
63445;DHT22;49573;47.682;9.170;2022-12-24T12:09:48;10.00;75.40
63445;DHT22;49573;47.682;9.170;2022-12-24T12:12:40;10.00;75.80
63445;DHT22;49573;47.682;9.170;2022-12-24T12:15:31;10.00;76.70
63445;DHT22;49573;47.682;9.170;2022-12-24T12:18:20;10.00;76.70
63445;DHT22;49573;47.682;9.170;2022-12-24T12:21:13;10.00;76.90
63445;DHT22;49573;47.682;9.170;2022-12-24T12:24:03;10.00;76.90
63445;DHT22;49573;47.682;9.170;2022-12-24T12:27:00;10.00;77.10
63445;DHT22;49573;47.682;9.170;2022-12-24T12:29:53;10.00;77.40
63445;DHT22;49573;47.682;9.170;2022-12-24T12:32:45;10.00;76.90
63445;DHT22;49573;47.682;9.170;2022-12-24T12:35:36;10.00;77.00
63445;DHT22;49573;47.682;9.170;2022-12-24T12:38:26;10.00;76.30
63445;DHT22;49573;47.682;9.170;2022-12-24T12:41:25;10.10;76.60
63445;DHT22;49573;47.682;9.170;2022-12-24T12:44:23;10.10;76.80
63445;DHT22;49573;47.682;9.170;2022-12-24T12:47:27;10.10;77.10
63445;DHT22;49573;47.682;9.170;2022-12-24T12:50:21;10.20;77.10
63445;DHT22;49573;47.682;9.170;2022-12-24T12:53:22;10.30;77.10
63445;DHT22;49573;47.682;9.170;2022-12-24T12:56:19;10.30;76.60
63445;DHT22;49573;47.682;9.170;2022-12-24T12:59:07;10.40;76.10
63445;DHT22;49573;47.682;9.170;2022-12-24T13:01:55;10.30;76.10
63445;DHT22;49573;47.682;9.170;2022-12-24T13:05:18;10.30;76.50
63445;DHT22;49573;47.682;9.170;2022-12-24T13:08:25;10.30;76.20
63445;DHT22;49573;47.682;9.170;2022-12-24T13:11:32;10.30;76.70
63445;DHT22;49573;47.682;9.170;2022-12-24T13:14:34;10.30;76.70
63445;DHT22;49573;47.682;9.170;2022-12-24T13:17:45;10.30;76.60
63445;DHT22;49573;47.682;9.170;2022-12-24T13:20:38;10.30;76.30
63445;DHT22;49573;47.682;9.170;2022-12-24T13:23:26;10.20;76.40
63445;DHT22;49573;47.682;9.170;2022-12-24T13:26:13;10.20;76.10
63445;DHT22;49573;47.682;9.170;2022-12-24T13:29:34;10.20;76.50
63445;DHT22;49573;47.682;9.170;2022-12-24T13:32:48;10.10;76.50
63445;DHT22;49573;47.682;9.170;2022-12-24T13:35:36;10.20;76.80
63445;DHT22;49573;47.682;9.170;2022-12-24T13:38:38;10.10;76.60
63445;DHT22;49573;47.682;9.170;2022-12-24T13:44:43;10.10;77.20
63445;DHT22;49573;47.682;9.170;2022-12-24T13:47:30;10.10;77.20
63445;DHT22;49573;47.682;9.170;2022-12-24T13:50:22;10.10;77.00
63445;DHT22;49573;47.682;9.170;2022-12-24T13:53:20;10.10;77.00
63445;DHT22;49573;47.682;9.170;2022-12-24T13:56:18;10.10;76.90
63445;DHT22;49573;47.682;9.170;2022-12-24T13:59:28;10.10;77.00
63445;DHT22;49573;47.682;9.170;2022-12-24T14:02:20;10.20;76.90
63445;DHT22;49573;47.682;9.170;2022-12-24T14:05:16;10.10;77.50
63445;DHT22;49573;47.682;9.170;2022-12-24T14:08:07;10.20;77.00
63445;DHT22;49573;47.682;9.170;2022-12-24T14:11:04;10.10;77.20
63445;DHT22;49573;47.682;9.170;2022-12-24T14:13:53;10.10;77.00
63445;DHT22;49573;47.682;9.170;2022-12-24T14:16:42;10.10;76.90
63445;DHT22;49573;47.682;9.170;2022-12-24T14:19:39;10.10;76.80
63445;DHT22;49573;47.682;9.170;2022-12-24T14:22:29;10.10;77.10
63445;DHT22;49573;47.682;9.170;2022-12-24T14:25:17;10.10;76.70
63445;DHT22;49573;47.682;9.170;2022-12-24T14:28:05;10.00;76.80
63445;DHT22;49573;47.682;9.170;2022-12-24T14:31:00;10.00;76.50
63445;DHT22;49573;47.682;9.170;2022-12-24T14:33:46;10.10;77.10
63445;DHT22;49573;47.682;9.170;2022-12-24T14:36:34;10.00;76.40
63445;DHT22;49573;47.682;9.170;2022-12-24T14:39:25;9.90;76.80
63445;DHT22;49573;47.682;9.170;2022-12-24T14:42:27;9.90;76.90
63445;DHT22;49573;47.682;9.170;2022-12-24T14:45:24;10.00;76.90
63445;DHT22;49573;47.682;9.170;2022-12-24T14:48:18;9.90;77.20
63445;DHT22;49573;47.682;9.170;2022-12-24T14:51:11;9.90;77.70
63445;DHT22;49573;47.682;9.170;2022-12-24T14:54:14;9.90;77.70
63445;DHT22;49573;47.682;9.170;2022-12-24T14:57:21;9.80;78.30
63445;DHT22;49573;47.682;9.170;2022-12-24T15:00:18;9.80;78.30
63445;DHT22;49573;47.682;9.170;2022-12-24T15:03:11;9.80;78.60
63445;DHT22;49573;47.682;9.170;2022-12-24T15:05:59;9.70;79.10
63445;DHT22;49573;47.682;9.170;2022-12-24T15:08:48;9.70;79.20
63445;DHT22;49573;47.682;9.170;2022-12-24T15:11:36;9.70;79.70
63445;DHT22;49573;47.682;9.170;2022-12-24T15:14:24;9.60;79.90
63445;DHT22;49573;47.682;9.170;2022-12-24T15:17:12;9.60;80.20
63445;DHT22;49573;47.682;9.170;2022-12-24T15:19:58;9.60;80.40
63445;DHT22;49573;47.682;9.170;2022-12-24T15:22:49;9.60;80.10
63445;DHT22;49573;47.682;9.170;2022-12-24T15:25:36;9.60;80.60
63445;DHT22;49573;47.682;9.170;2022-12-24T15:28:23;9.60;80.90
63445;DHT22;49573;47.682;9.170;2022-12-24T15:31:12;9.60;81.20
63445;DHT22;49573;47.682;9.170;2022-12-24T15:33:58;9.60;81.30
63445;DHT22;49573;47.682;9.170;2022-12-24T15:36:45;9.60;80.50
63445;DHT22;49573;47.682;9.170;2022-12-24T15:39:31;9.60;80.50
63445;DHT22;49573;47.682;9.170;2022-12-24T15:42:18;9.60;80.60
63445;DHT22;49573;47.682;9.170;2022-12-24T15:45:06;9.60;79.90
63445;DHT22;49573;47.682;9.170;2022-12-24T15:48:00;9.50;81.30
63445;DHT22;49573;47.682;9.170;2022-12-24T15:50:47;9.60;81.50
63445;DHT22;49573;47.682;9.170;2022-12-24T15:53:36;9.60;82.50
63445;DHT22;49573;47.682;9.170;2022-12-24T15:56:32;9.60;83.00
63445;DHT22;49573;47.682;9.170;2022-12-24T15:59:28;9.50;83.00
63445;DHT22;49573;47.682;9.170;2022-12-24T16:02:34;9.50;83.20
63445;DHT22;49573;47.682;9.170;2022-12-24T16:05:33;9.50;83.60
63445;DHT22;49573;47.682;9.170;2022-12-24T16:08:26;9.50;83.70
63445;DHT22;49573;47.682;9.170;2022-12-24T16:11:15;9.50;83.90
63445;DHT22;49573;47.682;9.170;2022-12-24T16:14:09;9.50;84.10
63445;DHT22;49573;47.682;9.170;2022-12-24T16:16:56;9.50;83.90
63445;DHT22;49573;47.682;9.170;2022-12-24T16:19:46;9.40;84.30
63445;DHT22;49573;47.682;9.170;2022-12-24T16:22:33;9.40;84.20
63445;DHT22;49573;47.682;9.170;2022-12-24T16:25:26;9.40;84.20
63445;DHT22;49573;47.682;9.170;2022-12-24T16:28:13;9.30;84.30
63445;DHT22;49573;47.682;9.170;2022-12-24T16:30:59;9.40;84.30
63445;DHT22;49573;47.682;9.170;2022-12-24T16:33:46;9.40;84.20
63445;DHT22;49573;47.682;9.170;2022-12-24T16:36:33;9.40;84.70
63445;DHT22;49573;47.682;9.170;2022-12-24T16:39:21;9.40;84.90
63445;DHT22;49573;47.682;9.170;2022-12-24T16:42:10;9.30;85.20
63445;DHT22;49573;47.682;9.170;2022-12-24T16:45:14;9.30;85.60
63445;DHT22;49573;47.682;9.170;2022-12-24T16:48:01;9.30;85.30
63445;DHT22;49573;47.682;9.170;2022-12-24T16:50:48;9.30;85.10
63445;DHT22;49573;47.682;9.170;2022-12-24T16:53:35;9.30;85.30
63445;DHT22;49573;47.682;9.170;2022-12-24T16:56:21;9.30;85.00
63445;DHT22;49573;47.682;9.170;2022-12-24T16:59:14;9.30;85.20
63445;DHT22;49573;47.682;9.170;2022-12-24T17:02:01;9.30;85.30
63445;DHT22;49573;47.682;9.170;2022-12-24T17:04:47;9.30;85.40
63445;DHT22;49573;47.682;9.170;2022-12-24T17:07:33;9.30;85.70
63445;DHT22;49573;47.682;9.170;2022-12-24T17:10:21;9.30;85.60
63445;DHT22;49573;47.682;9.170;2022-12-24T17:13:07;9.30;85.50
63445;DHT22;49573;47.682;9.170;2022-12-24T17:15:53;9.20;85.60
63445;DHT22;49573;47.682;9.170;2022-12-24T17:18:39;9.20;85.80
63445;DHT22;49573;47.682;9.170;2022-12-24T17:21:25;9.20;85.70
63445;DHT22;49573;47.682;9.170;2022-12-24T17:24:11;9.20;85.70
63445;DHT22;49573;47.682;9.170;2022-12-24T17:26:58;9.20;85.80
63445;DHT22;49573;47.682;9.170;2022-12-24T17:29:44;9.20;85.70
63445;DHT22;49573;47.682;9.170;2022-12-24T17:32:30;9.10;86.00
63445;DHT22;49573;47.682;9.170;2022-12-24T17:35:17;9.10;86.20
63445;DHT22;49573;47.682;9.170;2022-12-24T17:38:03;9.20;86.00
63445;DHT22;49573;47.682;9.170;2022-12-24T17:40:49;9.10;86.20
63445;DHT22;49573;47.682;9.170;2022-12-24T17:43:36;9.10;86.30
63445;DHT22;49573;47.682;9.170;2022-12-24T17:46:22;9.10;86.30
63445;DHT22;49573;47.682;9.170;2022-12-24T17:49:09;9.10;86.20
63445;DHT22;49573;47.682;9.170;2022-12-24T17:51:55;9.10;86.30
63445;DHT22;49573;47.682;9.170;2022-12-24T17:54:41;9.10;86.30
63445;DHT22;49573;47.682;9.170;2022-12-24T17:57:27;9.10;86.40
63445;DHT22;49573;47.682;9.170;2022-12-24T18:00:16;9.10;86.40
63445;DHT22;49573;47.682;9.170;2022-12-24T18:03:02;9.00;86.60